DAUH/HME METAR and TAF weather

Enter ICAO airport designator
Station Type Date Time Source
DAUH METAR 2020/06/06 14:00 UTC NOAA

DAUH 061400Z 20008KT 8000 NSC 39/04 Q1011


Station Type Date Time Source
DAUH Decoded METAR 2020/06/06 14:00 UTC NOAA

Hassi-Messaoud, Algeria (DAUH) 31-40N 006-09E 142M
Jun 06, 2020 - 10:00 AM EDT / 2020.06.06 1400 UTC
Wind: from the SSW (200 degrees) at 9 MPH (8 KT):0
Visibility: 4 mile(s):0
Temperature: 102 F (39 C)
Dew Point: 39 F (4 C)
Relative Humidity: 11%
Pressure (altimeter): 29.85 in. Hg (1011 hPa)
ob: DAUH 061400Z 20008KT 8000 NSC 39/04 Q1011
cycle: 14

Station Type Date Time Source
DAUH TAF 2020/06/06 12:33 UTC NOAA

TAF DAUH 061100Z 0612/0712 26010KT 6000 NSC PROB30 0612/0618 4000 HZ
BECMG 0613/0616 20008KT PROB40 0708/0712 18020KT 4000 DRSA

Example: see airport list